createdAt,value
2018-12-21T00:00:43.134Z,0.80
2018-12-21T00:03:14.443Z,1.00
2018-12-21T00:05:45.358Z,1.03
2018-12-21T00:08:23.096Z,1.27
2018-12-21T00:10:54.874Z,1.47
2018-12-21T00:13:25.821Z,0.87
2018-12-21T00:15:56.858Z,1.57
2018-12-21T00:18:27.949Z,1.67
2018-12-21T00:20:58.833Z,1.00
2018-12-21T00:23:30.554Z,0.80
2018-12-21T00:26:01.540Z,1.33
2018-12-21T00:28:32.475Z,1.23
2018-12-21T00:31:08.719Z,1.00
2018-12-21T00:33:45.172Z,1.10
2018-12-21T00:36:21.468Z,0.83
2018-12-21T00:38:57.965Z,1.07
2018-12-21T00:41:28.240Z,1.07
2018-12-21T00:44:34.098Z,1.03
2018-12-21T00:47:10.441Z,0.87
2018-12-21T00:49:41.790Z,0.87
2018-12-21T00:52:12.754Z,1.20
2018-12-21T00:54:43.993Z,0.70
2018-12-21T00:57:15.189Z,1.07
2018-12-21T00:59:46.377Z,2.10
2018-12-21T01:02:17.525Z,1.63
2018-12-21T01:04:48.720Z,1.03
2018-12-21T01:07:19.899Z,1.10
2018-12-21T01:09:51.002Z,1.00
2018-12-21T01:12:22.395Z,1.57
2018-12-21T01:14:53.545Z,1.20
2018-12-21T01:17:24.649Z,1.27
2018-12-21T01:19:55.859Z,1.70
2018-12-21T01:22:26.804Z,0.90
2018-12-21T01:24:58.037Z,1.40
2018-12-21T01:27:29.309Z,1.27
2018-12-21T01:30:01.101Z,1.53
2018-12-21T01:32:32.233Z,1.30
2018-12-21T01:35:03.430Z,1.00
2018-12-21T01:37:34.548Z,1.10
2018-12-21T01:40:06.154Z,1.00
2018-12-21T01:42:37.102Z,1.37
2018-12-21T01:45:08.482Z,1.13
2018-12-21T01:47:39.608Z,0.90
2018-12-21T01:50:10.827Z,0.97
2018-12-21T01:52:41.825Z,1.43
2018-12-21T01:55:13.043Z,0.90
2018-12-21T01:57:43.953Z,1.10
2018-12-21T02:00:15.363Z,0.77
2018-12-21T02:02:46.299Z,0.77
2018-12-21T02:05:17.421Z,1.40
2018-12-21T02:07:48.625Z,0.90
2018-12-21T02:10:19.752Z,0.80
2018-12-21T02:12:50.944Z,1.03
2018-12-21T02:15:22.005Z,1.00
2018-12-21T02:17:52.981Z,0.70
2018-12-21T02:20:24.127Z,0.83
2018-12-21T02:22:55.287Z,1.00
2018-12-21T02:25:27.055Z,0.80
2018-12-21T02:27:57.983Z,0.60
2018-12-21T02:30:29.339Z,0.83
2018-12-21T02:33:00.316Z,0.93
2018-12-21T02:35:32.119Z,0.53
2018-12-21T02:38:03.067Z,1.27
2018-12-21T02:40:34.190Z,0.77
2018-12-21T02:43:05.648Z,1.20
2018-12-21T02:45:36.551Z,0.57
2018-12-21T02:48:07.849Z,0.70
2018-12-21T02:50:38.855Z,0.53
2018-12-21T02:53:10.551Z,0.60
2018-12-21T02:55:41.456Z,0.40
2018-12-21T02:58:12.472Z,0.50
2018-12-21T03:00:44.048Z,0.70
2018-12-21T03:03:14.983Z,0.70
2018-12-21T03:05:46.091Z,1.20
2018-12-21T03:08:17.057Z,1.00
2018-12-21T03:10:49.311Z,0.87
2018-12-21T03:13:20.541Z,0.80
2018-12-21T03:15:51.496Z,1.20
2018-12-21T03:18:22.630Z,1.50
2018-12-21T03:20:54.115Z,1.47
2018-12-21T03:23:25.068Z,1.23
2018-12-21T03:25:56.249Z,1.70
2018-12-21T03:28:27.187Z,1.17
2018-12-21T03:31:05.022Z,1.30
2018-12-21T03:33:36.241Z,1.70
2018-12-21T03:36:07.800Z,1.60
2018-12-21T03:38:38.949Z,1.50
2018-12-21T03:41:10.811Z,1.80
2018-12-21T03:43:41.979Z,1.70
2018-12-21T03:46:13.026Z,1.47
2018-12-21T03:48:43.967Z,1.37
2018-12-21T03:51:14.985Z,1.50
2018-12-21T03:53:46.105Z,1.20
2018-12-21T03:56:17.075Z,0.90
2018-12-21T03:58:48.009Z,1.03
2018-12-21T04:01:18.961Z,0.80
2018-12-21T04:03:50.041Z,0.73
2018-12-21T04:06:21.219Z,0.70
2018-12-21T04:08:52.233Z,0.90
2018-12-21T04:11:23.252Z,0.70
2018-12-21T04:13:54.525Z,0.70
2018-12-21T04:16:25.656Z,0.60
2018-12-21T04:18:56.769Z,0.50
2018-12-21T04:21:27.984Z,0.87
2018-12-21T04:23:59.184Z,0.40
2018-12-21T04:26:30.180Z,0.33
2018-12-21T04:29:01.186Z,0.40
2018-12-21T04:31:32.153Z,0.47
2018-12-21T04:34:03.174Z,0.40
2018-12-21T04:36:34.108Z,0.33
2018-12-21T04:39:06.935Z,0.67
2018-12-21T04:41:38.011Z,0.20
2018-12-21T04:44:09.645Z,0.30
2018-12-21T04:46:40.629Z,0.67
2018-12-21T04:49:11.712Z,0.30
2018-12-21T04:51:42.689Z,0.30
2018-12-21T04:54:13.616Z,0.20
2018-12-21T04:56:44.594Z,0.27
2018-12-21T04:59:15.529Z,0.30
2018-12-21T05:01:46.596Z,0.27
2018-12-21T05:04:20.297Z,0.30
2018-12-21T05:06:50.495Z,0.10
2018-12-21T05:09:21.472Z,0.20
2018-12-21T05:11:52.438Z,0.40
2018-12-21T05:14:23.562Z,0.20
2018-12-21T05:16:54.633Z,0.20
2018-12-21T05:19:25.853Z,0.20
2018-12-21T05:21:57.008Z,0.30
2018-12-21T05:24:28.033Z,0.30
2018-12-21T05:26:59.327Z,0.50
2018-12-21T05:29:30.528Z,0.40
2018-12-21T05:32:01.921Z,0.30
2018-12-21T05:34:32.831Z,0.20
2018-12-21T05:37:04.047Z,0.50
2018-12-21T05:39:35.299Z,0.60
2018-12-21T05:42:06.273Z,0.60
2018-12-21T05:44:37.146Z,0.60
2018-12-21T05:47:08.148Z,1.17
2018-12-21T05:49:39.201Z,0.90
2018-12-21T05:52:10.378Z,0.60
2018-12-21T05:54:41.277Z,0.73
2018-12-21T05:57:12.528Z,0.63
2018-12-21T05:59:43.540Z,0.50
2018-12-21T06:02:14.488Z,0.40
2018-12-21T06:04:45.897Z,0.20
2018-12-21T06:07:17.208Z,0.27
2018-12-21T06:09:48.350Z,0.27
2018-12-21T06:12:19.371Z,0.20
2018-12-21T06:14:50.333Z,0.30
2018-12-21T06:17:21.287Z,0.40
2018-12-21T06:19:52.345Z,0.40
2018-12-21T06:22:23.505Z,0.40
2018-12-21T06:24:54.441Z,0.30
2018-12-21T06:27:25.567Z,0.30
2018-12-21T06:29:56.625Z,0.20
2018-12-21T06:32:27.915Z,0.20
2018-12-21T06:34:58.852Z,0.27
2018-12-21T06:37:30.925Z,0.20
2018-12-21T06:40:01.866Z,0.33
2018-12-21T06:42:32.807Z,0.20
2018-12-21T06:45:04.253Z,0.23
2018-12-21T06:47:35.202Z,0.30
2018-12-21T06:50:07.150Z,0.30
2018-12-21T06:52:38.343Z,0.20
2018-12-21T06:55:09.402Z,0.20
2018-12-21T06:57:40.646Z,0.23
2018-12-21T07:00:13.088Z,0.13
2018-12-21T07:02:44.346Z,0.20
2018-12-21T07:05:15.469Z,0.20
2018-12-21T07:07:46.417Z,0.20
2018-12-21T07:10:17.461Z,0.10
2018-12-21T07:12:48.720Z,0.10
2018-12-21T07:15:19.776Z,0.10
2018-12-21T07:17:50.936Z,0.13
2018-12-21T07:20:22.069Z,0.20
2018-12-21T07:22:53.205Z,0.20
2018-12-21T07:25:24.450Z,0.20
2018-12-21T07:27:55.585Z,0.10
2018-12-21T07:30:26.751Z,0.20
2018-12-21T07:32:58.067Z,0.20
2018-12-21T07:35:29.012Z,0.20
2018-12-21T07:37:59.974Z,0.40
2018-12-21T07:40:30.918Z,0.40
2018-12-21T07:43:01.870Z,0.33
2018-12-21T07:45:32.835Z,0.20
2018-12-21T07:48:03.987Z,0.10
2018-12-21T07:50:35.259Z,0.10
2018-12-21T07:53:06.411Z,0.10
2018-12-21T07:55:37.426Z,0.07
2018-12-21T07:58:08.703Z,0.10
2018-12-21T08:00:39.586Z,0.27
2018-12-21T08:03:10.767Z,0.00
2018-12-21T08:05:41.657Z,0.03
2018-12-21T08:08:12.590Z,0.10
2018-12-21T08:10:43.498Z,0.17
2018-12-21T08:13:14.414Z,0.10
2018-12-21T08:15:45.915Z,0.10
2018-12-21T08:18:17.184Z,0.13
2018-12-21T08:20:48.267Z,0.10
2018-12-21T08:23:19.456Z,0.17
2018-12-21T08:25:50.657Z,0.00
2018-12-21T08:28:21.840Z,0.00
2018-12-21T08:30:52.965Z,0.00
2018-12-21T08:33:24.063Z,0.00
2018-12-21T08:35:54.968Z,0.10
2018-12-21T08:38:26.615Z,0.00
2018-12-21T08:40:58.561Z,0.10
2018-12-21T08:43:29.488Z,0.00
2018-12-21T08:46:00.515Z,0.00
2018-12-21T08:48:31.436Z,0.00
2018-12-21T08:51:02.335Z,0.10
2018-12-21T08:53:33.938Z,0.00
2018-12-21T08:56:04.845Z,0.20
2018-12-21T08:58:35.866Z,0.37
2018-12-21T09:01:06.938Z,0.10
2018-12-21T09:03:38.694Z,0.00
2018-12-21T09:06:18.294Z,0.27
2018-12-21T09:08:43.031Z,0.10
2018-12-21T09:11:14.027Z,0.00
2018-12-21T09:13:44.949Z,0.00
2018-12-21T09:16:16.146Z,0.20
2018-12-21T09:18:47.093Z,0.10
2018-12-21T09:21:19.340Z,0.17
2018-12-21T09:23:50.497Z,0.40
2018-12-21T09:26:21.767Z,0.10
2018-12-21T09:28:52.785Z,0.10
2018-12-21T09:31:24.033Z,0.00
2018-12-21T09:33:55.062Z,0.07
2018-12-21T09:36:25.988Z,0.20
2018-12-21T09:38:56.918Z,0.30
2018-12-21T09:41:27.800Z,0.10
2018-12-21T09:43:58.886Z,0.20
2018-12-21T09:46:30.084Z,0.20
2018-12-21T09:49:01.126Z,0.37
2018-12-21T09:51:32.147Z,0.20
2018-12-21T09:54:09.896Z,0.10
2018-12-21T09:56:35.993Z,0.30
2018-12-21T09:59:08.075Z,0.20
2018-12-21T10:01:39.241Z,0.27
2018-12-21T10:04:10.163Z,0.30
2018-12-21T10:06:41.411Z,0.40
2018-12-21T10:09:12.623Z,0.30
2018-12-21T10:11:43.605Z,1.37
2018-12-21T10:14:14.532Z,0.57
2018-12-21T10:16:45.416Z,0.40
2018-12-21T10:19:17.192Z,0.50
2018-12-21T10:21:48.145Z,0.30
2018-12-21T10:24:19.237Z,0.33
2018-12-21T10:26:50.366Z,0.20
2018-12-21T10:29:21.296Z,0.30
2018-12-21T10:31:52.867Z,0.53
2018-12-21T10:34:23.918Z,0.40
2018-12-21T10:36:55.105Z,0.30
2018-12-21T10:39:26.211Z,0.33
2018-12-21T10:41:57.428Z,0.30
2018-12-21T10:44:29.022Z,1.23
2018-12-21T10:47:00.133Z,0.60
2018-12-21T10:49:32.080Z,0.83
2018-12-21T10:52:03.084Z,0.80
2018-12-21T10:54:34.096Z,0.97
2018-12-21T10:57:05.120Z,0.97
2018-12-21T10:59:43.168Z,0.80
2018-12-21T11:02:09.191Z,1.03
2018-12-21T11:04:40.246Z,0.90
2018-12-21T11:07:11.136Z,1.23
2018-12-21T11:09:42.077Z,1.33
2018-12-21T11:12:12.991Z,1.00
2018-12-21T11:14:43.945Z,1.27
2018-12-21T11:17:15.114Z,1.63
2018-12-21T11:19:46.012Z,1.50
2018-12-21T11:22:17.192Z,1.30
2018-12-21T16:52:10.330Z,5.90
2018-12-21T16:54:44.994Z,5.10
2018-12-21T16:57:19.546Z,4.87
2018-12-21T17:00:25.555Z,6.53
2018-12-21T17:02:56.756Z,5.87
2018-12-21T17:05:34.575Z,4.70
2018-12-21T17:08:05.620Z,5.07
2018-12-21T17:10:36.741Z,5.97
2018-12-21T17:13:07.797Z,5.30
2018-12-21T17:15:38.808Z,7.23
2018-12-21T17:18:09.804Z,4.20
2018-12-21T17:20:40.819Z,4.83
2018-12-21T17:23:11.810Z,4.33
2018-12-21T17:25:42.907Z,5.47
2018-12-21T17:28:13.877Z,5.20
2018-12-21T17:30:44.869Z,5.50
2018-12-21T17:33:16.003Z,5.00
2018-12-21T17:35:47.109Z,5.47
2018-12-21T17:38:18.120Z,5.10
2018-12-21T17:40:49.148Z,4.70
2018-12-21T17:43:20.158Z,4.70
2018-12-21T17:45:51.194Z,5.23
2018-12-21T17:48:22.346Z,5.73
2018-12-21T17:50:53.361Z,5.70
2018-12-21T17:53:24.427Z,6.13
2018-12-21T17:55:55.507Z,6.17
2018-12-21T17:58:26.518Z,5.47
2018-12-21T18:00:57.563Z,6.00
2018-12-21T18:03:35.961Z,6.20
2018-12-21T18:06:06.984Z,4.50
2018-12-21T18:08:38.007Z,4.60
2018-12-21T18:11:09.055Z,7.07
2018-12-21T18:13:40.075Z,6.37
2018-12-21T18:16:11.262Z,5.90
2018-12-21T18:18:42.257Z,5.53
2018-12-21T18:21:13.306Z,5.83
2018-12-21T18:23:46.590Z,4.63
2018-12-21T18:26:17.706Z,5.27
2018-12-21T18:28:49.136Z,6.13
2018-12-21T18:31:26.247Z,4.73
2018-12-21T18:33:57.962Z,4.90
2018-12-21T18:36:28.991Z,4.33
2018-12-21T18:39:00.002Z,4.97
2018-12-21T18:41:31.076Z,5.13
2018-12-21T18:44:02.052Z,5.83
2018-12-21T18:46:33.029Z,5.27
2018-12-21T18:49:04.151Z,4.97
2018-12-21T18:51:35.179Z,5.63
2018-12-21T18:54:06.639Z,5.20
2018-12-21T18:56:47.325Z,5.47
2018-12-21T18:59:18.262Z,5.67
2018-12-21T19:01:49.270Z,6.30
2018-12-21T19:04:26.724Z,5.20
2018-12-21T19:06:57.746Z,4.33
2018-12-21T19:09:28.985Z,5.53
2018-12-21T19:11:59.986Z,5.97
2018-12-21T19:14:31.025Z,5.43
2018-12-21T19:17:02.068Z,5.30
2018-12-21T19:19:33.071Z,4.90
2018-12-21T19:22:04.199Z,5.47
2018-12-21T19:24:35.207Z,5.10
2018-12-21T19:27:06.293Z,4.77
2018-12-21T19:29:37.353Z,5.27
2018-12-21T19:32:08.347Z,5.07
2018-12-21T19:34:39.405Z,5.40
2018-12-21T19:37:10.426Z,6.20
2018-12-21T19:39:41.449Z,4.47
2018-12-21T19:42:12.523Z,6.47
2018-12-21T19:44:43.531Z,5.83
2018-12-21T19:47:15.206Z,5.13
2018-12-21T19:49:46.391Z,4.87
2018-12-21T19:52:17.442Z,5.17
2018-12-21T19:54:54.164Z,6.77
2018-12-21T19:57:25.744Z,5.20
2018-12-21T19:59:56.764Z,5.00
2018-12-21T20:02:27.780Z,5.97
2018-12-21T20:04:58.825Z,5.67
2018-12-21T20:07:29.852Z,5.83
2018-12-21T20:10:00.962Z,5.33
2018-12-21T20:12:31.956Z,8.23
2018-12-21T20:15:03.083Z,5.60
2018-12-21T20:17:34.094Z,5.60
2018-12-21T20:20:05.988Z,6.10
2018-12-21T20:22:37.028Z,5.83
2018-12-21T20:25:09.533Z,5.80
2018-12-21T20:27:41.271Z,4.30
2018-12-21T20:30:15.516Z,4.97
2018-12-21T20:32:46.495Z,5.40
2018-12-21T20:35:17.569Z,4.97
2018-12-21T20:37:48.755Z,4.70
2018-12-21T20:40:19.759Z,4.97
2018-12-21T20:42:50.755Z,5.50
2018-12-21T20:45:21.773Z,6.20
2018-12-21T20:47:52.854Z,5.03
2018-12-21T20:50:23.835Z,4.43
2018-12-21T20:52:54.860Z,4.20
2018-12-21T20:55:25.899Z,5.57
2018-12-21T20:58:02.632Z,4.00
2018-12-21T21:00:33.678Z,4.27
2018-12-21T21:03:05.040Z,5.20
2018-12-21T21:05:36.147Z,6.67
2018-12-21T21:08:07.261Z,4.57
2018-12-21T21:10:38.283Z,4.60
2018-12-21T21:13:09.468Z,5.00
2018-12-21T21:15:40.504Z,5.23
2018-12-21T21:18:11.525Z,4.53
2018-12-21T21:20:42.541Z,4.77
2018-12-21T21:23:13.678Z,3.83
2018-12-21T21:25:44.682Z,5.30
2018-12-21T21:28:16.406Z,4.73
2018-12-21T21:30:47.593Z,4.60
2018-12-21T21:33:18.588Z,4.40
2018-12-21T21:35:49.629Z,3.80
2018-12-21T21:38:20.685Z,4.23
2018-12-21T21:40:51.779Z,5.03
2018-12-21T21:43:22.814Z,4.57
2018-12-21T21:45:53.866Z,4.50
2018-12-21T21:48:24.979Z,4.50
2018-12-21T21:50:55.952Z,4.60
2018-12-21T21:53:26.967Z,4.43
2018-12-21T21:55:57.999Z,4.90
2018-12-21T21:58:29.007Z,5.17
2018-12-21T22:01:00.048Z,8.70
2018-12-21T22:03:31.081Z,10.10
2018-12-21T22:06:02.141Z,7.20
2018-12-21T22:08:33.242Z,4.87
2018-12-21T22:11:04.436Z,4.80
2018-12-21T22:13:35.780Z,5.13
2018-12-21T22:16:06.775Z,5.67
2018-12-21T22:18:38.153Z,3.93
2018-12-21T22:21:09.178Z,4.63
2018-12-21T22:23:40.200Z,5.07
2018-12-21T22:26:11.247Z,4.90
2018-12-21T22:28:42.624Z,4.80
2018-12-21T22:31:13.667Z,4.80
2018-12-21T22:33:44.709Z,4.27
2018-12-21T22:36:15.714Z,5.17
2018-12-21T22:38:46.725Z,5.20
2018-12-21T22:41:17.727Z,4.87
2018-12-21T22:43:48.772Z,4.60
2018-12-21T22:46:19.805Z,4.90
2018-12-21T22:48:50.813Z,4.47
2018-12-21T22:51:22.391Z,5.37
2018-12-21T22:53:53.418Z,4.50
2018-12-21T22:56:24.468Z,4.73
2018-12-21T22:58:55.484Z,4.67
2018-12-21T23:01:26.740Z,4.53
2018-12-21T23:03:57.794Z,5.73
2018-12-21T23:06:28.781Z,3.90
2018-12-21T23:08:59.792Z,5.97
2018-12-21T23:11:30.844Z,5.47
2018-12-21T23:14:01.886Z,5.37
2018-12-21T23:16:32.918Z,5.40
2018-12-21T23:19:04.254Z,4.53
2018-12-21T23:21:35.360Z,4.50
2018-12-21T23:24:06.360Z,4.90
2018-12-21T23:26:37.374Z,4.23
2018-12-21T23:29:08.439Z,5.17
2018-12-21T23:31:39.451Z,4.17
2018-12-21T23:34:11.134Z,5.53
2018-12-21T23:36:42.142Z,3.87
2018-12-21T23:39:13.167Z,3.93
2018-12-21T23:41:44.243Z,4.43
2018-12-21T23:44:15.243Z,5.30
2018-12-21T23:46:46.280Z,4.17
2018-12-21T23:49:17.343Z,5.00
2018-12-21T23:51:54.752Z,5.07
2018-12-21T23:54:25.788Z,5.40
2018-12-21T23:56:56.861Z,4.23
2018-12-21T23:59:27.821Z,4.27
